sensor_id;sensor_type;location;lat;lon;timestamp;pressure;altitude;pressure_sealevel;temperature;humidity
46111;BME280;31849;55.992;37.252;2023-11-19T00:03:03;99964.41;;;-8.35;53.14
46111;BME280;31849;55.992;37.252;2023-11-19T00:08:08;99963.13;;;-8.40;53.06
46111;BME280;31849;55.992;37.252;2023-11-19T00:13:12;99928.69;;;-8.62;53.39
46111;BME280;31849;55.992;37.252;2023-11-19T00:18:15;99969.22;;;-8.38;53.64
46111;BME280;31849;55.992;37.252;2023-11-19T00:23:20;99972.81;;;-8.14;53.67
46111;BME280;31849;55.992;37.252;2023-11-19T00:28:25;99971.59;;;-7.97;52.94
46111;BME280;31849;55.992;37.252;2023-11-19T00:33:29;99966.97;;;-7.48;52.76
46111;BME280;31849;55.992;37.252;2023-11-19T00:38:34;99963.88;;;-7.34;52.95
46111;BME280;31849;55.992;37.252;2023-11-19T00:43:38;99952.53;;;-7.17;52.98
46111;BME280;31849;55.992;37.252;2023-11-19T00:48:42;99950.41;;;-7.00;52.93
46111;BME280;31849;55.992;37.252;2023-11-19T00:53:47;99935.81;;;-6.81;52.04
46111;BME280;31849;55.992;37.252;2023-11-19T00:58:51;99932.53;;;-6.80;52.91
46111;BME280;31849;55.992;37.252;2023-11-19T01:03:54;99932.16;;;-6.84;52.36
46111;BME280;31849;55.992;37.252;2023-11-19T01:09:01;99920.84;;;-6.90;52.94
46111;BME280;31849;55.992;37.252;2023-11-19T01:14:04;99922.84;;;-6.85;52.52
46111;BME280;31849;55.992;37.252;2023-11-19T01:19:08;99915.16;;;-6.75;52.98
46111;BME280;31849;55.992;37.252;2023-11-19T01:24:20;99908.47;;;-6.63;52.66
46111;BME280;31849;55.992;37.252;2023-11-19T01:29:24;99905.69;;;-6.78;53.30
46111;BME280;31849;55.992;37.252;2023-11-19T01:34:28;99910.66;;;-6.67;53.47
46111;BME280;31849;55.992;37.252;2023-11-19T01:39:33;99902.97;;;-6.57;53.13
46111;BME280;31849;55.992;37.252;2023-11-19T01:44:37;99898.88;;;-6.67;52.89
46111;BME280;31849;55.992;37.252;2023-11-19T01:49:41;99891.72;;;-6.73;53.31
46111;BME280;31849;55.992;37.252;2023-11-19T01:54:46;99891.63;;;-6.74;53.67
46111;BME280;31849;55.992;37.252;2023-11-19T01:59:51;99891.63;;;-6.74;53.51
46111;BME280;31849;55.992;37.252;2023-11-19T02:04:56;99894.84;;;-6.65;53.14
46111;BME280;31849;55.992;37.252;2023-11-19T02:10:01;99883.19;;;-6.63;53.29
46111;BME280;31849;55.992;37.252;2023-11-19T02:15:08;99880.88;;;-6.60;53.42
46111;BME280;31849;55.992;37.252;2023-11-19T02:20:12;99884.28;;;-6.47;53.70
46111;BME280;31849;55.992;37.252;2023-11-19T02:25:25;99874.63;;;-6.41;53.76
46111;BME280;31849;55.992;37.252;2023-11-19T02:30:33;99883.50;;;-6.34;53.52
46111;BME280;31849;55.992;37.252;2023-11-19T02:35:37;99870.41;;;-6.29;52.98
46111;BME280;31849;55.992;37.252;2023-11-19T02:40:42;99877.56;;;-6.35;53.41
46111;BME280;31849;55.992;37.252;2023-11-19T02:45:48;99878.88;;;-6.40;54.22
46111;BME280;31849;55.992;37.252;2023-11-19T02:50:51;99864.03;;;-6.36;53.89
46111;BME280;31849;55.992;37.252;2023-11-19T02:55:55;99870.84;;;-6.34;53.49
46111;BME280;31849;55.992;37.252;2023-11-19T03:01:05;99868.00;;;-6.27;53.65
46111;BME280;31849;55.992;37.252;2023-11-19T03:06:21;99866.56;;;-6.36;53.67
46111;BME280;31849;55.992;37.252;2023-11-19T03:11:25;99855.97;;;-6.18;53.18
46111;BME280;31849;55.992;37.252;2023-11-19T03:16:30;99846.94;;;-6.03;53.94
46111;BME280;31849;55.992;37.252;2023-11-19T03:21:34;99846.72;;;-6.18;54.14
46111;BME280;31849;55.992;37.252;2023-11-19T03:26:38;99843.63;;;-6.13;53.66
46111;BME280;31849;55.992;37.252;2023-11-19T03:31:44;99841.97;;;-6.01;53.80
46111;BME280;31849;55.992;37.252;2023-11-19T03:36:48;99842.38;;;-5.95;53.61
46111;BME280;31849;55.992;37.252;2023-11-19T03:41:51;99845.84;;;-5.81;52.98
46111;BME280;31849;55.992;37.252;2023-11-19T03:46:56;99842.50;;;-5.68;53.62
46111;BME280;31849;55.992;37.252;2023-11-19T03:52:00;99830.97;;;-5.76;54.02
46111;BME280;31849;55.992;37.252;2023-11-19T03:57:04;99843.94;;;-5.72;53.55
46111;BME280;31849;55.992;37.252;2023-11-19T04:02:09;99835.81;;;-5.54;53.62
46111;BME280;31849;55.992;37.252;2023-11-19T04:07:13;99825.91;;;-5.51;53.45
46111;BME280;31849;55.992;37.252;2023-11-19T04:12:17;99795.84;;;-5.58;53.26
46111;BME280;31849;55.992;37.252;2023-11-19T04:17:23;99811.91;;;-5.46;53.25
46111;BME280;31849;55.992;37.252;2023-11-19T04:22:27;99800.72;;;-5.61;53.65
46111;BME280;31849;55.992;37.252;2023-11-19T04:27:30;99795.38;;;-5.53;53.44
46111;BME280;31849;55.992;37.252;2023-11-19T04:32:35;99802.44;;;-5.49;53.78
46111;BME280;31849;55.992;37.252;2023-11-19T04:37:39;99805.94;;;-5.47;54.13
46111;BME280;31849;55.992;37.252;2023-11-19T04:42:42;99807.72;;;-5.32;53.75
46111;BME280;31849;55.992;37.252;2023-11-19T04:47:47;99803.97;;;-5.25;53.93
46111;BME280;31849;55.992;37.252;2023-11-19T04:52:51;99810.50;;;-5.16;53.49
46111;BME280;31849;55.992;37.252;2023-11-19T04:57:57;99817.13;;;-5.18;54.06
46111;BME280;31849;55.992;37.252;2023-11-19T05:03:03;99813.53;;;-4.95;53.82
46111;BME280;31849;55.992;37.252;2023-11-19T05:08:06;99806.34;;;-4.88;53.23
46111;BME280;31849;55.992;37.252;2023-11-19T05:13:10;99813.44;;;-4.96;53.67
46111;BME280;31849;55.992;37.252;2023-11-19T05:18:16;99820.97;;;-4.84;53.71
46111;BME280;31849;55.992;37.252;2023-11-19T05:23:20;99812.59;;;-4.83;53.51
46111;BME280;31849;55.992;37.252;2023-11-19T05:28:23;99817.28;;;-4.76;53.43
46111;BME280;31849;55.992;37.252;2023-11-19T05:33:29;99821.88;;;-4.57;53.65
46111;BME280;31849;55.992;37.252;2023-11-19T05:38:33;99816.81;;;-4.70;53.98
46111;BME280;31849;55.992;37.252;2023-11-19T05:43:37;99833.28;;;-4.50;53.20
46111;BME280;31849;55.992;37.252;2023-11-19T05:48:44;99822.44;;;-4.61;53.31
46111;BME280;31849;55.992;37.252;2023-11-19T05:53:49;99823.91;;;-4.65;54.00
46111;BME280;31849;55.992;37.252;2023-11-19T05:58:53;99823.69;;;-4.54;53.57
46111;BME280;31849;55.992;37.252;2023-11-19T06:04:00;99816.19;;;-4.39;53.64
46111;BME280;31849;55.992;37.252;2023-11-19T06:09:04;99812.09;;;-4.37;54.04
46111;BME280;31849;55.992;37.252;2023-11-19T06:14:11;99807.50;;;-4.30;53.88
46111;BME280;31849;55.992;37.252;2023-11-19T06:19:16;99814.69;;;-4.09;53.59
46111;BME280;31849;55.992;37.252;2023-11-19T06:24:20;99800.50;;;-4.06;53.58
46111;BME280;31849;55.992;37.252;2023-11-19T06:29:23;99795.47;;;-3.91;53.60
46111;BME280;31849;55.992;37.252;2023-11-19T06:34:28;99801.41;;;-3.77;53.41
46111;BME280;31849;55.992;37.252;2023-11-19T06:39:32;99802.34;;;-3.75;53.50
46111;BME280;31849;55.992;37.252;2023-11-19T06:44:37;99799.81;;;-4.03;54.38
46111;BME280;31849;55.992;37.252;2023-11-19T06:49:45;99775.16;;;-3.91;53.92
46111;BME280;31849;55.992;37.252;2023-11-19T06:54:49;99794.34;;;-3.53;53.34
46111;BME280;31849;55.992;37.252;2023-11-19T06:59:52;99797.84;;;-3.36;53.22
46111;BME280;31849;55.992;37.252;2023-11-19T07:04:57;99788.94;;;-3.14;53.31
46111;BME280;31849;55.992;37.252;2023-11-19T07:10:05;99786.22;;;-3.17;53.12
46111;BME280;31849;55.992;37.252;2023-11-19T07:15:11;99791.31;;;-3.32;53.63
46111;BME280;31849;55.992;37.252;2023-11-19T07:20:17;99799.47;;;-3.23;53.32
46111;BME280;31849;55.992;37.252;2023-11-19T07:25:21;99792.34;;;-3.28;53.45
46111;BME280;31849;55.992;37.252;2023-11-19T07:30:25;99790.19;;;-2.92;52.80
46111;BME280;31849;55.992;37.252;2023-11-19T07:35:31;99787.84;;;-2.58;52.14
46111;BME280;31849;55.992;37.252;2023-11-19T07:40:35;99795.16;;;-2.64;51.97
46111;BME280;31849;55.992;37.252;2023-11-19T07:45:39;99801.13;;;-2.78;52.62
46111;BME280;31849;55.992;37.252;2023-11-19T07:50:43;99792.84;;;-2.59;51.96
46111;BME280;31849;55.992;37.252;2023-11-19T07:55:47;99783.66;;;-2.41;51.39
46111;BME280;31849;55.992;37.252;2023-11-19T08:00:51;99778.06;;;-2.19;51.09
46111;BME280;31849;55.992;37.252;2023-11-19T08:05:56;99766.75;;;-2.24;51.40
46111;BME280;31849;55.992;37.252;2023-11-19T08:11:00;99767.34;;;-2.44;51.54
46111;BME280;31849;55.992;37.252;2023-11-19T08:16:05;99767.72;;;-2.53;50.63
46111;BME280;31849;55.992;37.252;2023-11-19T08:21:11;99762.38;;;-2.10;50.38
46111;BME280;31849;55.992;37.252;2023-11-19T08:26:14;99764.53;;;-2.01;50.18
46111;BME280;31849;55.992;37.252;2023-11-19T08:31:24;99762.63;;;-2.05;50.08
46111;BME280;31849;55.992;37.252;2023-11-19T08:36:30;99768.84;;;-2.17;49.49
46111;BME280;31849;55.992;37.252;2023-11-19T08:41:33;99765.72;;;-2.11;49.66
46111;BME280;31849;55.992;37.252;2023-11-19T08:46:37;99760.81;;;-1.75;49.29
46111;BME280;31849;55.992;37.252;2023-11-19T08:51:43;99758.47;;;-1.19;47.79
46111;BME280;31849;55.992;37.252;2023-11-19T08:56:47;99757.63;;;-1.02;47.70
46111;BME280;31849;55.992;37.252;2023-11-19T09:01:52;99752.47;;;-1.38;48.08
46111;BME280;31849;55.992;37.252;2023-11-19T09:06:59;99741.56;;;-1.17;47.50
46111;BME280;31849;55.992;37.252;2023-11-19T09:12:03;99763.81;;;-1.15;47.67
46111;BME280;31849;55.992;37.252;2023-11-19T09:17:06;99735.19;;;-1.44;46.87
46111;BME280;31849;55.992;37.252;2023-11-19T09:22:12;99740.09;;;-1.65;47.40
46111;BME280;31849;55.992;37.252;2023-11-19T09:27:15;99734.97;;;-1.48;46.69
46111;BME280;31849;55.992;37.252;2023-11-19T09:32:19;99733.09;;;-2.02;46.42
46111;BME280;31849;55.992;37.252;2023-11-19T09:37:24;99730.47;;;-1.87;46.50
46111;BME280;31849;55.992;37.252;2023-11-19T09:42:27;99723.16;;;-1.97;46.19
46111;BME280;31849;55.992;37.252;2023-11-19T09:47:31;99711.34;;;-2.28;46.03
46111;BME280;31849;55.992;37.252;2023-11-19T09:52:37;99704.03;;;-2.22;45.80
46111;BME280;31849;55.992;37.252;2023-11-19T09:57:40;99691.75;;;-2.29;45.97
46111;BME280;31849;55.992;37.252;2023-11-19T10:02:47;99685.66;;;-2.16;46.07
46111;BME280;31849;55.992;37.252;2023-11-19T10:07:53;99685.72;;;-1.98;45.68
46111;BME280;31849;55.992;37.252;2023-11-19T10:12:57;99674.00;;;-2.27;46.16
46111;BME280;31849;55.992;37.252;2023-11-19T10:18:02;99667.41;;;-2.07;45.37
46111;BME280;31849;55.992;37.252;2023-11-19T10:23:08;99665.81;;;-2.22;45.59
46111;BME280;31849;55.992;37.252;2023-11-19T10:28:15;99665.81;;;-2.38;45.25
46111;BME280;31849;55.992;37.252;2023-11-19T10:33:18;99658.78;;;-2.59;45.56
46111;BME280;31849;55.992;37.252;2023-11-19T10:38:25;99627.50;;;-2.89;45.39
46111;BME280;31849;55.992;37.252;2023-11-19T10:43:29;99648.53;;;-2.60;45.87
46111;BME280;31849;55.992;37.252;2023-11-19T10:48:33;99645.97;;;-2.77;45.76
46111;BME280;31849;55.992;37.252;2023-11-19T10:53:39;99650.66;;;-2.85;45.23
46111;BME280;31849;55.992;37.252;2023-11-19T10:58:44;99656.22;;;-3.07;45.63
46111;BME280;31849;55.992;37.252;2023-11-19T11:03:48;99658.91;;;-3.35;45.92
46111;BME280;31849;55.992;37.252;2023-11-19T11:08:57;99649.19;;;-3.42;46.26
46111;BME280;31849;55.992;37.252;2023-11-19T11:14:02;99660.91;;;-3.14;46.42
46111;BME280;31849;55.992;37.252;2023-11-19T11:19:06;99662.44;;;-3.02;46.52
46111;BME280;31849;55.992;37.252;2023-11-19T11:24:40;99655.66;;;-2.86;46.25
46111;BME280;31849;55.992;37.252;2023-11-19T11:29:58;99646.84;;;-3.08;45.60
46111;BME280;31849;55.992;37.252;2023-11-19T11:35:19;99651.84;;;-3.09;45.86
46111;BME280;31849;55.992;37.252;2023-11-19T11:40:27;99647.22;;;-3.16;46.26
46111;BME280;31849;55.992;37.252;2023-11-19T11:45:39;99632.19;;;-3.12;46.38
46111;BME280;31849;55.992;37.252;2023-11-19T11:50:54;99632.59;;;-2.89;45.86
46111;BME280;31849;55.992;37.252;2023-11-19T11:55:59;99629.44;;;-3.00;46.32
46111;BME280;31849;55.992;37.252;2023-11-19T12:01:05;99634.19;;;-3.06;46.80
46111;BME280;31849;55.992;37.252;2023-11-19T12:06:10;99628.53;;;-3.17;46.15
46111;BME280;31849;55.992;37.252;2023-11-19T12:11:16;99629.03;;;-3.08;46.10
46111;BME280;31849;55.992;37.252;2023-11-19T12:16:21;99621.53;;;-3.21;46.42
46111;BME280;31849;55.992;37.252;2023-11-19T12:21:29;99621.84;;;-3.15;46.45
46111;BME280;31849;55.992;37.252;2023-11-19T12:26:36;99630.03;;;-3.36;47.11
46111;BME280;31849;55.992;37.252;2023-11-19T12:31:44;99624.53;;;-3.43;47.16
46111;BME280;31849;55.992;37.252;2023-11-19T12:36:48;99614.66;;;-3.54;47.41
46111;BME280;31849;55.992;37.252;2023-11-19T12:41:53;99611.31;;;-3.53;47.08
46111;BME280;31849;55.992;37.252;2023-11-19T12:47:04;99613.00;;;-3.53;48.08
46111;BME280;31849;55.992;37.252;2023-11-19T12:52:12;99612.03;;;-3.55;47.49
46111;BME280;31849;55.992;37.252;2023-11-19T12:57:17;99603.38;;;-3.59;47.71
46111;BME280;31849;55.992;37.252;2023-11-19T13:02:22;99606.09;;;-3.71;48.06
46111;BME280;31849;55.992;37.252;2023-11-19T13:07:25;99606.44;;;-3.64;48.14
46111;BME280;31849;55.992;37.252;2023-11-19T13:12:30;99598.28;;;-3.59;47.77
46111;BME280;31849;55.992;37.252;2023-11-19T13:17:34;99597.41;;;-3.59;47.75
46111;BME280;31849;55.992;37.252;2023-11-19T13:22:38;99589.22;;;-3.54;47.89
46111;BME280;31849;55.992;37.252;2023-11-19T13:27:45;99586.41;;;-3.43;47.90
46111;BME280;31849;55.992;37.252;2023-11-19T13:32:49;99574.59;;;-3.43;48.27
46111;BME280;31849;55.992;37.252;2023-11-19T13:37:53;99546.25;;;-3.49;47.68
46111;BME280;31849;55.992;37.252;2023-11-19T13:42:58;99563.28;;;-3.16;48.02
46111;BME280;31849;55.992;37.252;2023-11-19T13:48:02;99565.16;;;-3.29;48.29
46111;BME280;31849;55.992;37.252;2023-11-19T13:53:05;99559.53;;;-3.23;48.06
46111;BME280;31849;55.992;37.252;2023-11-19T13:58:11;99567.19;;;-3.07;48.40
46111;BME280;31849;55.992;37.252;2023-11-19T14:03:15;99567.75;;;-3.12;48.07
46111;BME280;31849;55.992;37.252;2023-11-19T14:08:18;99569.59;;;-3.10;48.27
46111;BME280;31849;55.992;37.252;2023-11-19T14:13:28;99575.16;;;-3.01;48.74
46111;BME280;31849;55.992;37.252;2023-11-19T14:18:33;99569.13;;;-3.03;48.27
46111;BME280;31849;55.992;37.252;2023-11-19T14:23:37;99570.22;;;-3.14;48.30
46111;BME280;31849;55.992;37.252;2023-11-19T14:28:42;99572.59;;;-3.17;48.62
46111;BME280;31849;55.992;37.252;2023-11-19T14:33:48;99572.91;;;-3.11;48.48
46111;BME280;31849;55.992;37.252;2023-11-19T14:38:52;99558.78;;;-3.06;48.53
46111;BME280;31849;55.992;37.252;2023-11-19T14:43:58;99546.91;;;-3.22;48.67
46111;BME280;31849;55.992;37.252;2023-11-19T14:49:01;99560.72;;;-3.16;48.47
46111;BME280;31849;55.992;37.252;2023-11-19T14:54:06;99561.09;;;-3.25;48.99
46111;BME280;31849;55.992;37.252;2023-11-19T14:59:11;99564.72;;;-3.22;48.79
46111;BME280;31849;55.992;37.252;2023-11-19T15:04:15;99558.41;;;-3.28;49.19
46111;BME280;31849;55.992;37.252;2023-11-19T15:09:19;99562.00;;;-3.25;49.06
46111;BME280;31849;55.992;37.252;2023-11-19T15:14:24;99556.31;;;-3.36;48.97
46111;BME280;31849;55.992;37.252;2023-11-19T15:19:28;99554.09;;;-3.46;49.73
46111;BME280;31849;55.992;37.252;2023-11-19T15:24:31;99544.09;;;-3.43;49.78
46111;BME280;31849;55.992;37.252;2023-11-19T15:29:40;99544.16;;;-3.41;49.75
46111;BME280;31849;55.992;37.252;2023-11-19T15:34:44;99533.69;;;-3.62;49.75
46111;BME280;31849;55.992;37.252;2023-11-19T15:39:47;99546.03;;;-3.54;49.36
46111;BME280;31849;55.992;37.252;2023-11-19T15:44:55;99538.19;;;-3.42;49.46
46111;BME280;31849;55.992;37.252;2023-11-19T15:49:59;99533.91;;;-3.43;49.64
46111;BME280;31849;55.992;37.252;2023-11-19T15:55:04;99524.44;;;-3.45;49.65
46111;BME280;31849;55.992;37.252;2023-11-19T16:00:10;99528.66;;;-3.46;49.36
46111;BME280;31849;55.992;37.252;2023-11-19T16:05:14;99532.53;;;-3.53;49.11
46111;BME280;31849;55.992;37.252;2023-11-19T16:10:18;99519.19;;;-3.48;49.05
46111;BME280;31849;55.992;37.252;2023-11-19T16:15:37;99525.59;;;-3.55;49.69
46111;BME280;31849;55.992;37.252;2023-11-19T16:20:41;99529.91;;;-3.54;49.01
46111;BME280;31849;55.992;37.252;2023-11-19T16:25:44;99519.25;;;-3.63;49.62
46111;BME280;31849;55.992;37.252;2023-11-19T16:30:49;99540.69;;;-3.58;49.39
46111;BME280;31849;55.992;37.252;2023-11-19T16:35:55;99528.78;;;-3.59;49.20
46111;BME280;31849;55.992;37.252;2023-11-19T16:41:01;99534.19;;;-3.84;50.10
46111;BME280;31849;55.992;37.252;2023-11-19T16:46:08;99525.56;;;-3.72;49.64
46111;BME280;31849;55.992;37.252;2023-11-19T16:51:12;99522.06;;;-3.74;49.79
46111;BME280;31849;55.992;37.252;2023-11-19T16:56:17;99517.59;;;-3.78;49.86
46111;BME280;31849;55.992;37.252;2023-11-19T17:01:23;99510.88;;;-3.61;49.50
46111;BME280;31849;55.992;37.252;2023-11-19T17:06:27;99500.22;;;-3.70;49.38
46111;BME280;31849;55.992;37.252;2023-11-19T17:11:31;99495.22;;;-3.68;49.83
46111;BME280;31849;55.992;37.252;2023-11-19T17:16:36;99503.78;;;-3.51;49.88
46111;BME280;31849;55.992;37.252;2023-11-19T17:21:41;99503.75;;;-3.68;50.12
46111;BME280;31849;55.992;37.252;2023-11-19T17:26:45;99503.19;;;-3.62;49.48
46111;BME280;31849;55.992;37.252;2023-11-19T17:31:51;99499.81;;;-3.46;49.91
46111;BME280;31849;55.992;37.252;2023-11-19T17:36:54;99497.09;;;-3.49;49.71
46111;BME280;31849;55.992;37.252;2023-11-19T17:41:58;99494.16;;;-3.57;49.33
46111;BME280;31849;55.992;37.252;2023-11-19T17:47:04;99492.31;;;-3.60;49.65
46111;BME280;31849;55.992;37.252;2023-11-19T17:52:08;99487.84;;;-3.64;49.40
46111;BME280;31849;55.992;37.252;2023-11-19T17:57:12;99488.13;;;-3.59;49.76
46111;BME280;31849;55.992;37.252;2023-11-19T18:02:18;99469.16;;;-3.49;49.28
46111;BME280;31849;55.992;37.252;2023-11-19T18:07:42;99479.78;;;-3.57;49.57
46111;BME280;31849;55.992;37.252;2023-11-19T18:12:46;99482.16;;;-3.60;49.49
46111;BME280;31849;55.992;37.252;2023-11-19T18:17:51;99477.56;;;-3.50;49.93
46111;BME280;31849;55.992;37.252;2023-11-19T18:22:55;99482.34;;;-3.40;49.30
46111;BME280;31849;55.992;37.252;2023-11-19T18:27:58;99480.84;;;-3.37;49.64
46111;BME280;31849;55.992;37.252;2023-11-19T18:33:04;99483.56;;;-3.33;49.22
46111;BME280;31849;55.992;37.252;2023-11-19T18:38:07;99454.84;;;-3.79;49.62
46111;BME280;31849;55.992;37.252;2023-11-19T18:43:11;99473.66;;;-3.60;49.89
46111;BME280;31849;55.992;37.252;2023-11-19T18:48:17;99478.63;;;-3.47;49.50
46111;BME280;31849;55.992;37.252;2023-11-19T18:53:20;99474.53;;;-3.60;49.53
46111;BME280;31849;55.992;37.252;2023-11-19T18:58:24;99477.56;;;-3.50;49.49
46111;BME280;31849;55.992;37.252;2023-11-19T19:03:30;99476.47;;;-3.39;49.26
46111;BME280;31849;55.992;37.252;2023-11-19T19:08:34;99477.91;;;-3.44;49.75
46111;BME280;31849;55.992;37.252;2023-11-19T19:13:38;99479.00;;;-3.39;49.42
46111;BME280;31849;55.992;37.252;2023-11-19T19:18:42;99478.44;;;-3.50;50.00
46111;BME280;31849;55.992;37.252;2023-11-19T19:23:46;99473.06;;;-3.40;49.51
46111;BME280;31849;55.992;37.252;2023-11-19T19:28:50;99477.69;;;-3.64;50.15
46111;BME280;31849;55.992;37.252;2023-11-19T19:33:55;99471.78;;;-3.48;49.69
46111;BME280;31849;55.992;37.252;2023-11-19T19:39:00;99475.81;;;-3.51;50.45
46111;BME280;31849;55.992;37.252;2023-11-19T19:44:05;99470.75;;;-3.51;49.74
46111;BME280;31849;55.992;37.252;2023-11-19T19:49:12;99471.69;;;-3.49;49.95
46111;BME280;31849;55.992;37.252;2023-11-19T19:54:16;99472.06;;;-3.58;50.61
46111;BME280;31849;55.992;37.252;2023-11-19T19:59:19;99473.91;;;-3.56;50.42
46111;BME280;31849;55.992;37.252;2023-11-19T20:04:25;99462.47;;;-3.47;50.42
46111;BME280;31849;55.992;37.252;2023-11-19T20:09:28;99467.75;;;-3.44;50.26
46111;BME280;31849;55.992;37.252;2023-11-19T20:14:36;99470.53;;;-3.40;50.11
46111;BME280;31849;55.992;37.252;2023-11-19T20:19:42;99467.75;;;-3.28;49.64
46111;BME280;31849;55.992;37.252;2023-11-19T20:24:46;99453.03;;;-3.50;50.13
46111;BME280;31849;55.992;37.252;2023-11-19T20:29:49;99469.69;;;-3.55;50.64
46111;BME280;31849;55.992;37.252;2023-11-19T20:34:54;99471.94;;;-3.45;50.26
46111;BME280;31849;55.992;37.252;2023-11-19T20:40:00;99469.97;;;-3.34;49.94
46111;BME280;31849;55.992;37.252;2023-11-19T20:45:05;99484.50;;;-3.15;49.78
46111;BME280;31849;55.992;37.252;2023-11-19T20:50:12;99472.53;;;-3.34;50.26
46111;BME280;31849;55.992;37.252;2023-11-19T20:55:16;99474.41;;;-3.46;50.07
46111;BME280;31849;55.992;37.252;2023-11-19T21:00:20;99474.56;;;-3.43;50.37
46111;BME280;31849;55.992;37.252;2023-11-19T21:05:25;99461.38;;;-3.36;49.96
46111;BME280;31849;55.992;37.252;2023-11-19T21:10:28;99468.19;;;-3.51;50.88
46111;BME280;31849;55.992;37.252;2023-11-19T21:15:32;99458.34;;;-3.62;50.93
46111;BME280;31849;55.992;37.252;2023-11-19T21:20:45;99454.53;;;-3.37;50.65
46111;BME280;31849;55.992;37.252;2023-11-19T21:25:49;99460.69;;;-3.33;50.61
46111;BME280;31849;55.992;37.252;2023-11-19T21:30:54;99455.91;;;-3.44;50.71
46111;BME280;31849;55.992;37.252;2023-11-19T21:36:01;99434.91;;;-3.56;50.96
46111;BME280;31849;55.992;37.252;2023-11-19T21:41:04;99428.53;;;-3.64;50.90
46111;BME280;31849;55.992;37.252;2023-11-19T21:46:09;99424.75;;;-3.56;50.62
46111;BME280;31849;55.992;37.252;2023-11-19T21:51:14;99420.44;;;-3.74;51.42
46111;BME280;31849;55.992;37.252;2023-11-19T21:56:18;99425.34;;;-3.77;50.66
46111;BME280;31849;55.992;37.252;2023-11-19T22:01:22;99422.13;;;-3.89;51.66
46111;BME280;31849;55.992;37.252;2023-11-19T22:06:27;99420.00;;;-3.98;51.22
46111;BME280;31849;55.992;37.252;2023-11-19T22:11:31;99424.22;;;-4.28;52.03
46111;BME280;31849;55.992;37.252;2023-11-19T22:16:34;99424.56;;;-4.22;51.64
46111;BME280;31849;55.992;37.252;2023-11-19T22:21:39;99415.97;;;-4.09;51.38
46111;BME280;31849;55.992;37.252;2023-11-19T22:26:44;99422.06;;;-4.06;51.06
46111;BME280;31849;55.992;37.252;2023-11-19T22:31:48;99416.66;;;-4.12;51.26
46111;BME280;31849;55.992;37.252;2023-11-19T22:36:53;99420.34;;;-4.07;51.05
46111;BME280;31849;55.992;37.252;2023-11-19T22:41:57;99411.53;;;-4.28;51.69
46111;BME280;31849;55.992;37.252;2023-11-19T22:47:01;99411.72;;;-4.40;51.16
46111;BME280;31849;55.992;37.252;2023-11-19T22:52:11;99407.00;;;-4.49;51.56
46111;BME280;31849;55.992;37.252;2023-11-19T22:57:15;99401.16;;;-4.78;51.86
46111;BME280;31849;55.992;37.252;2023-11-19T23:02:19;99397.13;;;-4.89;52.23
46111;BME280;31849;55.992;37.252;2023-11-19T23:07:24;99403.66;;;-5.07;52.38
46111;BME280;31849;55.992;37.252;2023-11-19T23:12:28;99413.94;;;-5.34;52.69
46111;BME280;31849;55.992;37.252;2023-11-19T23:17:31;99410.13;;;-5.69;52.90
46111;BME280;31849;55.992;37.252;2023-11-19T23:22:37;99405.25;;;-5.66;53.02
46111;BME280;31849;55.992;37.252;2023-11-19T23:27:41;99408.91;;;-5.89;52.88
46111;BME280;31849;55.992;37.252;2023-11-19T23:32:45;99402.88;;;-5.91;52.53
46111;BME280;31849;55.992;37.252;2023-11-19T23:37:50;99401.91;;;-5.93;53.06
46111;BME280;31849;55.992;37.252;2023-11-19T23:42:54;99401.09;;;-5.92;53.02
46111;BME280;31849;55.992;37.252;2023-11-19T23:47:57;99397.78;;;-6.20;53.70
46111;BME280;31849;55.992;37.252;2023-11-19T23:53:02;99400.31;;;-6.20;53.39
46111;BME280;31849;55.992;37.252;2023-11-19T23:58:06;99398.25;;;-6.25;53.37
